createdAt,value
2023-03-02T00:02:48.584Z,6.00
2023-03-02T00:06:10.870Z,6.10
2023-03-02T00:09:32.959Z,6.00
2023-03-02T00:12:54.991Z,6.10
2023-03-02T00:16:17.044Z,6.00
2023-03-02T00:19:39.135Z,6.00
2023-03-02T00:23:01.091Z,6.10
2023-03-02T00:26:23.150Z,6.10
2023-03-02T00:29:45.587Z,6.10
2023-03-02T00:33:07.651Z,6.20
2023-03-02T00:36:29.819Z,6.10
2023-03-02T00:39:53.306Z,6.20
2023-03-02T00:43:16.297Z,6.20
2023-03-02T00:46:38.298Z,6.20
2023-03-02T00:50:00.892Z,6.20
2023-03-02T00:53:23.008Z,6.20
2023-03-02T00:56:45.322Z,6.10
2023-03-02T01:00:08.476Z,6.10
2023-03-02T01:03:35.330Z,6.20
2023-03-02T01:06:59.045Z,6.50
2023-03-02T01:10:20.992Z,6.50
2023-03-02T01:13:43.497Z,6.40
2023-03-02T01:17:07.492Z,6.40
2023-03-02T01:20:30.435Z,6.40
2023-03-02T01:23:52.764Z,6.40
2023-03-02T01:27:15.011Z,6.40
2023-03-02T01:30:36.996Z,6.30
2023-03-02T01:33:59.060Z,6.30
2023-03-02T01:37:22.946Z,6.30
2023-03-02T01:40:44.893Z,6.30
2023-03-02T01:44:26.842Z,6.30
2023-03-02T01:47:48.806Z,6.30
2023-03-02T01:51:24.016Z,6.30
2023-03-02T01:54:49.884Z,6.20
2023-03-02T01:58:15.467Z,6.20
2023-03-02T02:01:41.711Z,6.10
2023-03-02T02:05:04.577Z,6.10
2023-03-02T02:08:27.114Z,6.10
2023-03-02T02:11:49.848Z,6.10
2023-03-02T02:15:12.015Z,6.00
2023-03-02T02:18:37.749Z,6.00
2023-03-02T02:21:59.757Z,5.90
2023-03-02T02:25:55.585Z,5.90
2023-03-02T02:29:23.218Z,5.90
2023-03-02T02:32:47.827Z,5.80
2023-03-02T02:36:25.012Z,5.70
2023-03-02T02:39:49.746Z,5.60
2023-03-02T02:43:15.324Z,5.50
2023-03-02T02:46:37.494Z,5.50
2023-03-02T02:49:59.585Z,5.50
2023-03-02T02:53:27.416Z,5.40
2023-03-02T02:56:52.026Z,5.40
2023-03-02T03:00:20.093Z,5.40
2023-03-02T03:03:46.374Z,5.40
2023-03-02T03:07:13.182Z,5.40
2023-03-02T03:10:40.206Z,5.30
2023-03-02T03:14:15.585Z,5.30
2023-03-02T03:17:40.961Z,5.40
2023-03-02T03:21:03.276Z,5.30
2023-03-02T03:24:27.165Z,5.30
2023-03-02T03:27:49.748Z,5.40
2023-03-02T03:31:12.209Z,5.40
2023-03-02T03:34:41.004Z,5.30
2023-03-02T03:38:09.896Z,5.30
2023-03-02T03:41:32.632Z,5.30
2023-03-02T03:44:54.928Z,5.30
2023-03-02T03:48:18.014Z,5.30
2023-03-02T03:51:41.768Z,5.30
2023-03-02T03:55:04.710Z,5.30
2023-03-02T03:58:27.544Z,5.30
2023-03-02T04:01:52.879Z,5.20
2023-03-02T04:05:15.225Z,5.20
2023-03-02T04:08:37.221Z,5.20
2023-03-02T04:11:59.482Z,5.20
2023-03-02T04:15:22.889Z,5.20
2023-03-02T04:18:46.374Z,5.20
2023-03-02T04:22:08.355Z,5.20
2023-03-02T04:25:31.216Z,5.20
2023-03-02T04:29:04.097Z,5.10
2023-03-02T04:32:26.121Z,5.10
2023-03-02T04:35:51.498Z,5.10
2023-03-02T04:39:15.566Z,5.10
2023-03-02T04:42:40.474Z,5.10
2023-03-02T04:46:02.633Z,5.10
2023-03-02T04:49:24.727Z,5.10
2023-03-02T04:52:47.002Z,5.10
2023-03-02T04:56:09.058Z,5.10
2023-03-02T04:59:31.053Z,5.10
2023-03-02T05:02:53.073Z,5.10
2023-03-02T05:06:16.157Z,5.10
2023-03-02T05:09:38.140Z,5.10
2023-03-02T05:13:05.001Z,5.00
2023-03-02T05:16:32.672Z,5.00
2023-03-02T05:19:54.869Z,5.00
2023-03-02T05:23:25.207Z,5.00
2023-03-02T05:26:47.784Z,5.00
2023-03-02T05:30:10.455Z,5.10
2023-03-02T05:33:32.892Z,5.00
2023-03-02T05:36:55.059Z,5.10
2023-03-02T05:40:20.286Z,5.00
2023-03-02T05:43:42.731Z,5.00
2023-03-02T05:47:05.903Z,5.00
2023-03-02T05:50:28.182Z,5.10
2023-03-02T05:53:50.162Z,5.00
2023-03-02T05:57:13.063Z,5.10
2023-03-02T06:00:39.262Z,5.10
2023-03-02T06:04:19.898Z,5.10
2023-03-02T06:07:42.524Z,5.10
2023-03-02T06:11:04.627Z,5.10
2023-03-02T06:14:26.595Z,5.20
2023-03-02T06:17:48.874Z,5.20
2023-03-02T06:21:10.985Z,5.20
2023-03-02T06:24:33.140Z,5.20
2023-03-02T06:27:55.168Z,5.20
2023-03-02T06:31:17.238Z,5.30
2023-03-02T06:34:39.233Z,5.40
2023-03-02T06:38:01.255Z,5.40
2023-03-02T06:41:23.347Z,5.50
2023-03-02T06:44:45.326Z,5.60
2023-03-02T06:48:07.631Z,5.70
2023-03-02T06:51:29.834Z,5.80
2023-03-02T06:54:51.855Z,6.00
2023-03-02T06:58:14.139Z,6.10
2023-03-02T07:01:36.590Z,6.20
2023-03-02T07:04:59.467Z,6.30
2023-03-02T07:08:23.683Z,6.50
2023-03-02T07:11:47.394Z,6.60
2023-03-02T07:15:14.667Z,6.70
2023-03-02T07:18:39.192Z,7.00
2023-03-02T07:22:02.308Z,7.30
2023-03-02T07:25:26.294Z,7.60
2023-03-02T07:28:50.577Z,7.90
2023-03-02T07:32:13.037Z,8.00
2023-03-02T07:35:35.151Z,8.10
2023-03-02T07:38:57.594Z,8.10
2023-03-02T07:42:19.670Z,8.20
2023-03-02T07:45:46.364Z,8.30
2023-03-02T07:49:08.399Z,8.40
2023-03-02T07:52:31.020Z,8.30
2023-03-02T07:55:53.406Z,8.60
2023-03-02T07:59:16.057Z,8.70
2023-03-02T08:02:44.681Z,8.90
2023-03-02T08:06:12.693Z,9.00
2023-03-02T08:09:35.206Z,9.00
2023-03-02T08:12:57.173Z,8.90
2023-03-02T08:16:19.523Z,8.90
2023-03-02T08:19:42.371Z,9.00
2023-03-02T08:23:05.024Z,9.40
2023-03-02T08:26:29.053Z,9.90
2023-03-02T08:29:54.583Z,10.30
2023-03-02T08:33:16.926Z,10.40
2023-03-02T08:36:40.130Z,10.40
2023-03-02T08:40:02.120Z,10.70
2023-03-02T08:43:25.485Z,10.90
2023-03-02T08:46:48.999Z,11.30
2023-03-02T08:50:11.384Z,11.70
2023-03-02T08:53:37.822Z,12.40
2023-03-02T08:57:01.123Z,13.00
2023-03-02T09:00:23.648Z,13.10
2023-03-02T09:03:46.033Z,13.30
2023-03-02T09:07:11.742Z,13.30
2023-03-02T09:10:40.669Z,13.20
2023-03-02T09:14:02.929Z,12.80
2023-03-02T09:17:24.912Z,12.50
2023-03-02T09:20:53.712Z,12.70
2023-03-02T09:24:16.454Z,12.70
2023-03-02T09:27:39.185Z,12.10
2023-03-02T09:31:03.354Z,12.00
2023-03-02T09:34:26.731Z,12.00
2023-03-02T09:37:48.986Z,11.60
2023-03-02T09:41:19.904Z,11.40
2023-03-02T09:44:42.420Z,11.30
2023-03-02T09:48:17.140Z,11.00
2023-03-02T09:52:15.897Z,11.20
2023-03-02T09:55:55.083Z,11.40
2023-03-02T09:59:27.513Z,11.50
2023-03-02T10:03:23.941Z,11.70
2023-03-02T10:06:47.701Z,12.00
2023-03-02T10:10:20.941Z,12.40
2023-03-02T10:14:03.494Z,12.70
2023-03-02T10:17:39.858Z,13.20
2023-03-02T10:21:05.154Z,13.40
2023-03-02T10:24:47.488Z,13.20
2023-03-02T10:28:20.939Z,13.50
2023-03-02T10:31:43.481Z,13.00
2023-03-02T10:35:23.665Z,13.20
2023-03-02T10:38:47.352Z,13.30
2023-03-02T10:42:28.310Z,12.90
2023-03-02T10:46:05.404Z,12.50
2023-03-02T10:49:33.820Z,12.60
2023-03-02T10:53:01.550Z,12.90
2023-03-02T10:56:29.965Z,13.00
2023-03-02T10:59:52.822Z,13.20
2023-03-02T11:03:22.765Z,12.90
2023-03-02T11:06:44.820Z,12.60
2023-03-02T11:10:20.458Z,12.60
2023-03-02T11:13:43.627Z,12.40
2023-03-02T11:17:33.308Z,12.20
2023-03-02T11:21:19.137Z,12.00
2023-03-02T11:24:53.116Z,11.90
2023-03-02T11:28:33.931Z,11.50
2023-03-02T11:32:13.344Z,11.30
2023-03-02T11:35:51.504Z,11.20
2023-03-02T11:39:25.465Z,11.20
2023-03-02T11:42:49.409Z,10.80
2023-03-02T11:46:26.178Z,10.60
2023-03-02T11:49:59.667Z,10.60
2023-03-02T11:53:44.141Z,10.70
2023-03-02T11:57:17.983Z,10.80
2023-03-02T12:00:43.690Z,10.80
2023-03-02T12:04:28.156Z,10.70
2023-03-02T12:08:03.503Z,10.70
2023-03-02T12:11:34.704Z,10.60
2023-03-02T12:15:35.765Z,10.70
2023-03-02T12:19:16.593Z,10.60
2023-03-02T12:22:39.040Z,10.50
2023-03-02T12:26:09.528Z,10.60
2023-03-02T12:29:57.168Z,10.70
2023-03-02T12:33:22.513Z,10.70
2023-03-02T12:36:45.246Z,10.80
2023-03-02T12:40:33.818Z,11.00
2023-03-02T12:44:01.801Z,11.10
2023-03-02T12:47:30.040Z,11.30
2023-03-02T12:50:55.474Z,11.40
2023-03-02T12:54:43.587Z,11.30
2023-03-02T12:58:23.554Z,11.30
2023-03-02T13:01:45.566Z,11.20
2023-03-02T13:05:09.328Z,11.40
2023-03-02T13:08:32.493Z,11.30
2023-03-02T13:11:55.229Z,11.30
2023-03-02T13:15:18.090Z,11.40
2023-03-02T13:18:40.222Z,11.60
2023-03-02T13:22:04.283Z,11.80
2023-03-02T13:25:29.149Z,11.90
2023-03-02T13:29:07.638Z,11.90
2023-03-02T13:32:38.725Z,12.10
2023-03-02T13:36:01.075Z,12.10
2023-03-02T13:39:30.209Z,12.00
2023-03-02T13:42:52.331Z,12.10
2023-03-02T13:46:14.327Z,12.10
2023-03-02T13:49:36.765Z,11.80
2023-03-02T13:53:02.512Z,11.60
2023-03-02T13:56:34.286Z,11.70
2023-03-02T13:59:56.582Z,11.60
2023-03-02T14:03:30.160Z,11.50
2023-03-02T14:06:54.022Z,11.70
2023-03-02T14:10:17.952Z,11.50
2023-03-02T14:13:53.228Z,11.40
2023-03-02T14:17:18.164Z,11.60
2023-03-02T14:20:40.148Z,11.50
2023-03-02T14:24:02.247Z,11.50
2023-03-02T14:27:29.092Z,11.50
2023-03-02T14:30:54.832Z,11.50
2023-03-02T14:34:17.761Z,11.60
2023-03-02T14:37:51.343Z,11.50
2023-03-02T14:41:19.304Z,11.40
2023-03-02T14:44:42.814Z,11.40
2023-03-02T14:48:04.951Z,11.30
2023-03-02T14:51:30.531Z,11.40
2023-03-02T14:54:56.095Z,11.40
2023-03-02T14:58:31.064Z,11.70
2023-03-02T15:01:56.316Z,12.00
2023-03-02T15:05:20.988Z,12.40
2023-03-02T15:08:43.417Z,12.70
2023-03-02T15:12:06.301Z,12.90
2023-03-02T15:15:28.245Z,13.10
2023-03-02T15:18:51.484Z,13.20
2023-03-02T15:22:13.961Z,13.00
2023-03-02T15:25:44.177Z,13.00
2023-03-02T15:29:07.551Z,12.90
2023-03-02T15:32:30.761Z,12.80
2023-03-02T15:35:55.539Z,12.70
2023-03-02T15:39:19.204Z,12.50
2023-03-02T15:42:42.782Z,12.30
2023-03-02T15:46:09.712Z,12.20
2023-03-02T15:49:32.951Z,12.10
2023-03-02T15:52:57.493Z,12.00
2023-03-02T15:56:19.593Z,11.90
2023-03-02T15:59:41.715Z,11.70
2023-03-02T16:03:04.015Z,11.60
2023-03-02T16:06:28.202Z,11.50
2023-03-02T16:09:52.347Z,11.40
2023-03-02T16:13:15.040Z,11.30
2023-03-02T16:16:37.932Z,11.20
2023-03-02T16:20:01.027Z,11.10
2023-03-02T16:23:23.748Z,11.00
2023-03-02T16:26:46.241Z,10.90
2023-03-02T16:30:09.155Z,10.80
2023-03-02T16:33:31.245Z,10.70
2023-03-02T16:36:55.040Z,10.60
2023-03-02T16:40:18.216Z,10.40
2023-03-02T16:43:52.810Z,10.30
2023-03-02T16:47:15.556Z,10.20
2023-03-02T16:50:43.980Z,10.10
2023-03-02T16:54:07.076Z,10.00
2023-03-02T16:57:29.400Z,9.90
2023-03-02T17:00:52.071Z,9.80
2023-03-02T17:04:15.193Z,9.60
2023-03-02T17:07:38.268Z,9.40
2023-03-02T17:11:01.214Z,9.30
2023-03-02T17:14:23.419Z,9.10
2023-03-02T17:17:45.559Z,9.00
2023-03-02T17:21:08.047Z,8.90
2023-03-02T17:24:30.370Z,8.80
2023-03-02T17:27:52.720Z,8.70
2023-03-02T17:31:17.819Z,8.70
2023-03-02T17:34:46.558Z,8.60
2023-03-02T17:38:08.755Z,8.60
2023-03-02T17:41:32.597Z,8.60
2023-03-02T17:44:54.678Z,8.60
2023-03-02T17:48:22.712Z,8.50
2023-03-02T17:51:46.278Z,8.50
2023-03-02T17:55:09.747Z,8.50
2023-03-02T17:58:44.172Z,8.60
2023-03-02T18:02:08.044Z,8.50
2023-03-02T18:05:30.817Z,8.50
2023-03-02T18:08:53.321Z,8.50
2023-03-02T18:12:16.043Z,8.50
2023-03-02T18:15:39.047Z,8.40
2023-03-02T18:19:03.221Z,8.20
2023-03-02T18:22:26.106Z,8.10
2023-03-02T18:25:49.911Z,8.00
2023-03-02T18:29:12.338Z,7.80
2023-03-02T18:32:34.400Z,7.70
2023-03-02T18:35:57.745Z,7.60
2023-03-02T18:39:24.266Z,7.40
2023-03-02T18:42:47.739Z,7.20
2023-03-02T18:46:25.174Z,6.90
2023-03-02T18:49:47.486Z,6.70
2023-03-02T18:53:13.002Z,6.50
2023-03-02T18:56:39.464Z,6.40
2023-03-02T19:00:03.126Z,6.30
2023-03-02T19:03:29.375Z,6.30
2023-03-02T19:06:52.964Z,6.30
2023-03-02T19:10:15.916Z,6.30
2023-03-02T19:13:41.234Z,6.40
2023-03-02T19:17:03.433Z,6.50
2023-03-02T19:20:27.615Z,6.50
2023-03-02T19:23:50.897Z,6.60
2023-03-02T19:27:13.427Z,6.60
2023-03-02T19:30:37.780Z,6.60
2023-03-02T19:34:00.906Z,6.50
2023-03-02T19:37:24.243Z,6.30
2023-03-02T19:40:48.627Z,6.20
2023-03-02T19:44:12.992Z,6.00
2023-03-02T19:47:39.076Z,5.70
2023-03-02T19:51:01.395Z,5.60
2023-03-02T19:54:24.518Z,5.50
2023-03-02T19:57:55.912Z,5.50
2023-03-02T20:01:25.289Z,5.40
2023-03-02T20:04:51.082Z,5.30
2023-03-02T20:08:15.534Z,5.20
2023-03-02T20:11:40.943Z,5.10
2023-03-02T20:15:05.538Z,5.10
2023-03-02T20:18:28.459Z,5.10
2023-03-02T20:21:52.027Z,5.10
2023-03-02T20:25:14.577Z,5.10
2023-03-02T20:28:37.218Z,5.00
2023-03-02T20:31:59.639Z,5.00
2023-03-02T20:35:24.952Z,4.70
2023-03-02T20:38:54.735Z,4.60
2023-03-02T20:42:18.096Z,4.40
2023-03-02T20:45:42.305Z,4.40
2023-03-02T20:49:10.727Z,4.30
2023-03-02T20:52:33.105Z,4.20
2023-03-02T20:55:57.182Z,4.20
2023-03-02T20:59:20.607Z,4.10
2023-03-02T21:02:43.417Z,4.10
2023-03-02T21:06:07.601Z,4.00
2023-03-02T21:09:29.765Z,3.90
2023-03-02T21:12:53.004Z,3.90
2023-03-02T21:16:23.044Z,3.80
2023-03-02T21:19:45.329Z,3.80
2023-03-02T21:23:07.710Z,3.70
2023-03-02T21:26:30.252Z,3.60
2023-03-02T21:29:52.486Z,3.60
2023-03-02T21:33:14.525Z,3.70
2023-03-02T21:36:37.239Z,3.90
2023-03-02T21:40:00.661Z,4.00
2023-03-02T21:43:23.604Z,4.10
2023-03-02T21:46:47.586Z,4.30
2023-03-02T21:50:14.927Z,4.30
2023-03-02T21:53:38.213Z,4.30
2023-03-02T21:57:01.598Z,4.20
2023-03-02T22:00:30.165Z,4.10
2023-03-02T22:03:52.211Z,4.00
2023-03-02T22:07:14.191Z,3.90
2023-03-02T22:10:47.371Z,3.80
2023-03-02T22:14:15.021Z,3.60
2023-03-02T22:17:37.027Z,3.70
2023-03-02T22:20:59.262Z,3.70
2023-03-02T22:24:30.081Z,3.80
2023-03-02T22:27:52.238Z,4.00
2023-03-02T22:31:21.810Z,4.10
2023-03-02T22:34:45.613Z,4.20
2023-03-02T22:38:20.008Z,4.20
2023-03-02T22:41:41.971Z,4.20
2023-03-02T22:45:17.194Z,4.20
2023-03-02T22:48:45.084Z,4.10
2023-03-02T22:52:20.543Z,3.90
2023-03-02T22:55:43.587Z,3.80
2023-03-02T22:59:26.398Z,3.70
2023-03-02T23:02:48.371Z,3.60
2023-03-02T23:06:20.578Z,3.70
2023-03-02T23:09:42.560Z,3.60
2023-03-02T23:13:04.731Z,3.80
2023-03-02T23:16:29.301Z,3.90
2023-03-02T23:19:51.478Z,3.90
2023-03-02T23:23:13.595Z,3.80
2023-03-02T23:26:35.704Z,3.70
2023-03-02T23:29:57.897Z,3.60
2023-03-02T23:33:19.852Z,3.40
2023-03-02T23:36:42.281Z,3.30
2023-03-02T23:40:04.616Z,3.20
2023-03-02T23:43:26.791Z,3.20
2023-03-02T23:46:49.353Z,3.10
2023-03-02T23:50:12.942Z,3.00
2023-03-02T23:53:34.904Z,3.00
2023-03-02T23:56:56.860Z,3.00
